createdAt,value
2023-01-26T00:01:28.479Z,102130.59
2023-01-26T00:03:56.696Z,102126.25
2023-01-26T00:06:25.112Z,102125.34
2023-01-26T00:08:56.682Z,102119.13
2023-01-26T00:11:26.817Z,102124.47
2023-01-26T00:13:55.365Z,102110.38
2023-01-26T00:16:23.331Z,102100.72
2023-01-26T00:18:51.180Z,102091.72
2023-01-26T00:21:21.527Z,102100.53
2023-01-26T00:23:50.491Z,102086.47
2023-01-26T00:26:21.538Z,102082.88
2023-01-26T00:28:50.124Z,102078.44
2023-01-26T00:31:19.974Z,102080.16
2023-01-26T00:33:47.829Z,102074.06
2023-01-26T00:36:16.187Z,102066.22
2023-01-26T00:38:44.110Z,102063.69
2023-01-26T00:41:33.238Z,102063.75
2023-01-26T00:44:02.848Z,102057.63
2023-01-26T00:46:30.718Z,102052.28
2023-01-26T00:49:00.597Z,102056.59
2023-01-26T00:51:28.504Z,102051.25
2023-01-26T00:53:56.394Z,102050.31
2023-01-26T00:56:28.005Z,102038.81
2023-01-26T00:58:55.961Z,102043.25
2023-01-26T01:01:25.177Z,102033.56
2023-01-26T01:03:53.175Z,102024.56
2023-01-26T01:06:21.159Z,102034.47
2023-01-26T01:08:49.293Z,102031.78
2023-01-26T01:11:17.112Z,102021.19
2023-01-26T01:13:44.915Z,102023.88
2023-01-26T01:16:14.942Z,102023.81
2023-01-26T01:18:44.647Z,102024.75
2023-01-26T01:21:14.409Z,102034.50
2023-01-26T01:23:42.814Z,102038.06
2023-01-26T01:26:11.575Z,102031.09
2023-01-26T01:28:39.935Z,102030.19
2023-01-26T01:31:08.678Z,102039.91
2023-01-26T01:33:36.516Z,102040.78
2023-01-26T01:36:07.950Z,102040.78
2023-01-26T01:38:36.574Z,102052.53
2023-01-26T01:41:04.624Z,102054.25
2023-01-26T01:43:32.446Z,102057.84
2023-01-26T01:46:02.235Z,102059.63
2023-01-26T01:48:36.610Z,102063.97
2023-01-26T01:51:13.262Z,102058.59
2023-01-26T01:53:47.512Z,102056.81
2023-01-26T01:56:21.488Z,102055.75
2023-01-26T01:58:53.096Z,102033.63
2023-01-26T02:01:21.018Z,102027.34
2023-01-26T02:03:53.103Z,102032.78
2023-01-26T02:06:26.047Z,102033.75
2023-01-26T02:08:55.602Z,102031.16
2023-01-26T02:11:28.075Z,102037.41
2023-01-26T02:13:58.093Z,102032.22
2023-01-26T02:16:26.248Z,102023.44
2023-01-26T02:18:54.125Z,102023.34
2023-01-26T02:21:24.956Z,102019.69
2023-01-26T02:24:06.984Z,102025.78
2023-01-26T02:26:38.083Z,102023.03
2023-01-26T02:29:10.133Z,102018.56
2023-01-26T02:31:38.948Z,102012.31
2023-01-26T02:34:06.805Z,102007.00
2023-01-26T02:36:35.498Z,101995.53
2023-01-26T02:39:23.193Z,101987.56
2023-01-26T02:42:08.026Z,101988.47
2023-01-26T02:44:35.984Z,101976.88
2023-01-26T02:47:12.047Z,101976.81
2023-01-26T02:49:47.790Z,101973.41
2023-01-26T02:52:16.240Z,101968.34
2023-01-26T02:55:01.661Z,101968.44
2023-01-26T02:57:30.766Z,101973.69
2023-01-26T02:59:58.560Z,101957.81
2023-01-26T03:02:26.343Z,101955.09
2023-01-26T03:04:54.146Z,101947.06
2023-01-26T03:07:21.873Z,101941.81
2023-01-26T03:09:49.706Z,101936.41
2023-01-26T03:12:17.453Z,101945.34
2023-01-26T03:14:46.613Z,101948.00
2023-01-26T03:17:14.357Z,101942.88
2023-01-26T03:19:59.582Z,101946.25
2023-01-26T03:22:45.075Z,101945.34
2023-01-26T03:25:30.581Z,101940.97
2023-01-26T03:27:58.322Z,101946.28
2023-01-26T03:30:27.416Z,101946.44
2023-01-26T03:32:55.181Z,101948.19
2023-01-26T03:35:23.046Z,101947.38
2023-01-26T03:37:54.768Z,101954.50
2023-01-26T03:40:40.067Z,101945.91
2023-01-26T03:43:28.460Z,101942.47
2023-01-26T03:46:15.137Z,101951.25
2023-01-26T03:49:00.475Z,101948.47
2023-01-26T03:51:45.752Z,101942.41
2023-01-26T03:54:31.145Z,101937.72
2023-01-26T03:56:58.889Z,101930.63
2023-01-26T03:59:38.720Z,101928.03
2023-01-26T04:02:26.085Z,101931.38
2023-01-26T04:05:11.862Z,101927.88
2023-01-26T04:07:57.810Z,101921.69
2023-01-26T04:10:26.175Z,101919.63
2023-01-26T04:13:11.438Z,101924.88
2023-01-26T04:15:57.235Z,101914.47
2023-01-26T04:18:43.932Z,101908.88
2023-01-26T04:21:30.564Z,101913.44
2023-01-26T04:23:59.136Z,101911.31
2023-01-26T04:26:34.608Z,101911.25
2023-01-26T04:29:03.368Z,101909.38
2023-01-26T04:31:31.198Z,101904.06
2023-01-26T04:34:00.955Z,101904.06
2023-01-26T04:36:28.902Z,101891.72
2023-01-26T04:38:57.255Z,101894.13
2023-01-26T04:41:25.489Z,101894.88
2023-01-26T04:43:53.352Z,101898.41
2023-01-26T04:46:21.094Z,101896.63
2023-01-26T04:48:48.949Z,101896.78
2023-01-26T04:51:20.752Z,101897.34
2023-01-26T04:53:49.381Z,101905.34
2023-01-26T04:56:23.212Z,101897.44
2023-01-26T04:58:51.250Z,101906.94
2023-01-26T05:01:19.274Z,101906.94
2023-01-26T05:03:47.346Z,101908.72
2023-01-26T05:06:15.276Z,101900.50
2023-01-26T05:08:44.325Z,101896.16
2023-01-26T05:11:12.419Z,101900.72
2023-01-26T05:13:41.357Z,101899.75
2023-01-26T05:16:09.494Z,101900.38
2023-01-26T05:18:37.380Z,101895.28
2023-01-26T05:21:05.524Z,101908.25
2023-01-26T05:23:33.354Z,101900.56
2023-01-26T05:26:02.682Z,101901.91
2023-01-26T05:28:30.404Z,101902.66
2023-01-26T05:30:58.281Z,101901.91
2023-01-26T05:33:26.235Z,101904.34
2023-01-26T05:35:54.604Z,101905.41
2023-01-26T05:38:22.400Z,101901.00
2023-01-26T05:40:50.101Z,101899.22
2023-01-26T05:43:19.226Z,101902.56
2023-01-26T05:45:46.941Z,101897.25
2023-01-26T05:48:14.768Z,101899.84
2023-01-26T05:50:42.566Z,101898.94
2023-01-26T05:53:10.378Z,101890.63
2023-01-26T05:55:38.118Z,101897.19
2023-01-26T05:58:05.823Z,101904.31
2023-01-26T06:00:35.027Z,101902.59
2023-01-26T06:03:02.805Z,101906.34
2023-01-26T06:05:30.607Z,101906.22
2023-01-26T06:07:58.308Z,101905.00
2023-01-26T06:10:26.410Z,101909.66
2023-01-26T06:12:54.113Z,101913.84
2023-01-26T06:15:21.870Z,101907.72
2023-01-26T06:17:50.997Z,101911.31
2023-01-26T06:20:18.986Z,101914.72
2023-01-26T06:22:46.677Z,101919.75
2023-01-26T06:25:14.470Z,101923.41
2023-01-26T06:27:42.645Z,101921.59
2023-01-26T06:30:12.131Z,101914.06
2023-01-26T06:32:40.089Z,101919.75
2023-01-26T06:35:10.136Z,101924.22
2023-01-26T06:37:37.813Z,101925.66
2023-01-26T06:40:06.594Z,101927.31
2023-01-26T06:42:34.344Z,101920.91
2023-01-26T06:45:02.063Z,101930.31
2023-01-26T06:47:29.856Z,101926.91
2023-01-26T06:49:57.691Z,101926.91
2023-01-26T06:52:32.320Z,101930.13
2023-01-26T06:55:01.390Z,101932.22
2023-01-26T06:57:29.137Z,101935.47
2023-01-26T06:59:57.960Z,101931.53
2023-01-26T07:02:25.671Z,101940.84
2023-01-26T07:04:53.895Z,101937.75
2023-01-26T07:07:21.638Z,101937.00
2023-01-26T07:09:50.711Z,101938.09
2023-01-26T07:12:18.466Z,101944.41
2023-01-26T07:14:46.786Z,101948.53
2023-01-26T07:17:14.578Z,101939.59
2023-01-26T07:19:42.387Z,101944.47
2023-01-26T07:22:10.105Z,101941.50
2023-01-26T07:24:37.995Z,101949.81
2023-01-26T07:27:07.370Z,101955.19
2023-01-26T07:29:35.140Z,101945.41
2023-01-26T07:32:02.885Z,101953.84
2023-01-26T07:34:30.667Z,101959.13
2023-01-26T07:36:58.530Z,101948.97
2023-01-26T07:39:26.835Z,101950.94
2023-01-26T07:41:54.720Z,101952.94
2023-01-26T07:44:23.966Z,101964.22
2023-01-26T07:46:51.766Z,101957.94
2023-01-26T07:49:19.599Z,101966.63
2023-01-26T07:51:47.493Z,101964.88
2023-01-26T07:54:15.258Z,101974.31
2023-01-26T07:56:44.169Z,101971.91
2023-01-26T07:59:13.037Z,101971.56
2023-01-26T08:01:42.129Z,101975.88
2023-01-26T08:04:09.973Z,101978.19
2023-01-26T08:06:37.745Z,101982.41
2023-01-26T08:09:05.734Z,101978.09
2023-01-26T08:11:33.490Z,101988.94
2023-01-26T08:14:01.293Z,101987.00
2023-01-26T08:16:29.263Z,101988.00
2023-01-26T08:18:58.399Z,101998.69
2023-01-26T08:21:26.126Z,101999.31
2023-01-26T08:23:54.282Z,101991.31
2023-01-26T08:26:22.544Z,102002.22
2023-01-26T08:28:50.425Z,102000.38
2023-01-26T08:31:20.515Z,102015.53
2023-01-26T08:33:50.747Z,102018.03
2023-01-26T08:36:22.566Z,102028.34
2023-01-26T08:38:51.007Z,102020.69
2023-01-26T08:41:18.844Z,102029.19
2023-01-26T08:43:46.779Z,102034.59
2023-01-26T08:46:14.929Z,102036.03
2023-01-26T08:48:42.782Z,102050.25
2023-01-26T08:51:10.510Z,102048.84
2023-01-26T08:53:39.619Z,102050.66
2023-01-26T08:56:09.872Z,102056.59
2023-01-26T08:58:38.104Z,102047.34
2023-01-26T09:01:06.981Z,102060.63
2023-01-26T09:03:35.505Z,102060.50
2023-01-26T09:06:04.356Z,102066.53
2023-01-26T09:08:32.693Z,102071.63
2023-01-26T09:11:02.056Z,102068.41
2023-01-26T09:13:29.844Z,102086.13
2023-01-26T09:15:57.686Z,102083.53
2023-01-26T09:18:25.490Z,102092.31
2023-01-26T09:20:53.627Z,102088.53
2023-01-26T09:23:21.395Z,102090.41
2023-01-26T09:25:54.097Z,102100.84
2023-01-26T09:28:23.255Z,102094.25
2023-01-26T09:30:51.109Z,102097.53
2023-01-26T09:33:18.878Z,102089.69
2023-01-26T09:35:46.679Z,102091.59
2023-01-26T09:38:14.501Z,102095.50
2023-01-26T09:40:51.088Z,102101.81
2023-01-26T09:43:31.739Z,102102.63
2023-01-26T09:46:07.529Z,102106.56
2023-01-26T09:48:44.595Z,102108.72
2023-01-26T09:51:19.688Z,102109.91
2023-01-26T09:53:55.222Z,102106.41
2023-01-26T09:56:29.250Z,102103.78
2023-01-26T09:59:06.548Z,102112.88
2023-01-26T10:01:41.596Z,102113.59
2023-01-26T10:04:17.796Z,102108.94
2023-01-26T10:06:46.113Z,102106.81
2023-01-26T10:09:18.682Z,102109.78
2023-01-26T10:11:50.090Z,102112.03
2023-01-26T10:14:22.765Z,102114.66
2023-01-26T10:16:52.666Z,102120.84
2023-01-26T10:19:33.614Z,102117.88
2023-01-26T10:22:07.152Z,102115.66
2023-01-26T10:24:34.987Z,102115.84
2023-01-26T10:27:02.737Z,102107.00
2023-01-26T10:29:31.913Z,102118.78
2023-01-26T10:31:59.672Z,102122.28
2023-01-26T10:34:28.873Z,102127.97
2023-01-26T10:37:13.135Z,102132.94
2023-01-26T10:39:58.756Z,102131.47
2023-01-26T10:42:29.374Z,102142.56
2023-01-26T10:45:00.410Z,102151.56
2023-01-26T10:47:28.381Z,102141.53
2023-01-26T10:50:16.934Z,102143.41
2023-01-26T10:52:58.699Z,102169.78
2023-01-26T10:55:26.987Z,102146.88
2023-01-26T10:57:54.742Z,102152.19
2023-01-26T11:00:28.931Z,102155.41
2023-01-26T11:03:04.112Z,102140.72
2023-01-26T11:05:31.920Z,102143.38
2023-01-26T11:08:00.460Z,102131.06
2023-01-26T11:10:31.860Z,102119.75
2023-01-26T11:13:16.483Z,102124.66
2023-01-26T11:15:47.924Z,102135.94
2023-01-26T11:18:32.223Z,102132.81
2023-01-26T11:21:04.668Z,102138.78
2023-01-26T11:23:43.975Z,102128.56
2023-01-26T11:26:26.702Z,102121.13
2023-01-26T11:29:11.215Z,102135.50
2023-01-26T11:31:54.927Z,102125.34
2023-01-26T11:34:29.154Z,102125.41
2023-01-26T11:37:01.943Z,102117.22
2023-01-26T11:39:35.866Z,102131.13
2023-01-26T11:42:22.863Z,102113.63
2023-01-26T11:45:16.215Z,102105.69
2023-01-26T11:47:58.578Z,102104.75
2023-01-26T11:50:35.020Z,102104.59
2023-01-26T11:53:31.548Z,102110.75
2023-01-26T11:56:17.995Z,102115.47
2023-01-26T11:58:51.181Z,102121.72
2023-01-26T12:01:28.848Z,102104.00
2023-01-26T12:03:58.844Z,102102.56
2023-01-26T12:06:36.231Z,102103.81
2023-01-26T12:09:11.669Z,102104.91
2023-01-26T12:11:43.820Z,102101.75
2023-01-26T12:14:21.317Z,102098.16
2023-01-26T12:17:17.372Z,102107.50
2023-01-26T12:19:55.827Z,102098.25
2023-01-26T12:22:34.417Z,102092.97
2023-01-26T12:25:29.025Z,102097.47
2023-01-26T12:28:03.354Z,102090.25
2023-01-26T12:30:37.846Z,102101.75
2023-01-26T12:33:05.755Z,102101.91
2023-01-26T12:35:47.880Z,102093.38
2023-01-26T12:38:22.830Z,102097.72
2023-01-26T12:40:59.997Z,102096.75
2023-01-26T12:43:48.248Z,102099.13
2023-01-26T12:46:17.881Z,102095.03
2023-01-26T12:48:49.842Z,102096.84
2023-01-26T12:51:23.085Z,102102.88
2023-01-26T12:53:58.904Z,102096.03
2023-01-26T12:56:32.666Z,102095.47
2023-01-26T12:59:07.041Z,102107.81
2023-01-26T13:01:40.798Z,102094.78
2023-01-26T13:04:12.143Z,102093.81
2023-01-26T13:06:41.786Z,102097.16
2023-01-26T13:09:24.852Z,102084.84
2023-01-26T13:11:54.687Z,102082.19
2023-01-26T13:15:00.287Z,102084.75
2023-01-26T13:17:55.954Z,102082.63
2023-01-26T13:20:33.268Z,102080.78
2023-01-26T13:23:02.345Z,102082.19
2023-01-26T13:25:32.584Z,102081.53
2023-01-26T13:28:02.239Z,102078.31
2023-01-26T13:31:03.653Z,102076.78
2023-01-26T13:33:31.722Z,102070.41
2023-01-26T13:36:03.362Z,102076.50
2023-01-26T13:38:36.750Z,102077.84
2023-01-26T13:41:09.066Z,102082.72
2023-01-26T13:43:41.706Z,102081.16
2023-01-26T13:46:15.365Z,102070.81
2023-01-26T13:48:46.990Z,102072.38
2023-01-26T13:51:18.628Z,102057.03
2023-01-26T13:53:55.819Z,102055.38
2023-01-26T13:56:27.627Z,102060.56
2023-01-26T13:59:03.763Z,102059.78
2023-01-26T14:01:31.977Z,102062.00
2023-01-26T14:04:08.027Z,102058.22
2023-01-26T14:06:38.053Z,102060.50
2023-01-26T14:09:12.524Z,102066.34
2023-01-26T14:11:40.793Z,102064.16
2023-01-26T14:14:21.882Z,102058.22
2023-01-26T14:16:49.613Z,102055.84
2023-01-26T14:19:19.786Z,102061.25
2023-01-26T14:21:50.208Z,102052.03
2023-01-26T14:24:21.344Z,102054.50
2023-01-26T14:26:49.814Z,102056.34
2023-01-26T14:29:23.635Z,102050.00
2023-01-26T14:31:53.700Z,102056.31
2023-01-26T14:34:23.795Z,102063.25
2023-01-26T14:37:07.106Z,102056.91
2023-01-26T14:39:36.377Z,102058.31
2023-01-26T14:42:05.108Z,102063.91
2023-01-26T14:44:33.111Z,102070.88
2023-01-26T14:47:06.462Z,102073.88
2023-01-26T14:49:43.904Z,102075.38
2023-01-26T14:52:24.153Z,102073.56
2023-01-26T14:54:55.375Z,102080.38
2023-01-26T14:57:25.825Z,102087.50
2023-01-26T14:59:56.862Z,102078.03
2023-01-26T15:02:27.067Z,102086.84
2023-01-26T15:04:59.010Z,102099.22
2023-01-26T15:07:44.966Z,102089.28
2023-01-26T15:10:39.178Z,102095.19
2023-01-26T15:13:18.737Z,102102.97
2023-01-26T15:15:49.175Z,102101.44
2023-01-26T15:18:20.520Z,102102.28
2023-01-26T15:21:00.273Z,102101.56
2023-01-26T15:23:30.102Z,102109.78
2023-01-26T15:26:05.999Z,102104.06
2023-01-26T15:28:34.019Z,102114.63
2023-01-26T15:31:02.187Z,102117.22
2023-01-26T15:33:41.123Z,102127.38
2023-01-26T15:36:23.506Z,102128.41
2023-01-26T15:38:52.165Z,102127.38
2023-01-26T15:41:21.278Z,102126.31
2023-01-26T15:43:49.070Z,102124.63
2023-01-26T15:46:16.881Z,102130.56
2023-01-26T15:48:44.716Z,102133.97
2023-01-26T15:51:14.288Z,102126.72
2023-01-26T15:53:42.108Z,102130.19
2023-01-26T15:56:13.540Z,102133.88
2023-01-26T15:58:43.597Z,102128.97
2023-01-26T16:01:16.142Z,102130.69
2023-01-26T16:03:45.106Z,102132.34
2023-01-26T16:06:24.087Z,102127.16
2023-01-26T16:08:52.003Z,102130.78
2023-01-26T16:11:21.148Z,102132.25
2023-01-26T16:14:02.400Z,102133.56
2023-01-26T16:16:30.583Z,102137.03
2023-01-26T16:18:58.617Z,102135.69
2023-01-26T16:21:30.237Z,102129.31
2023-01-26T16:23:58.419Z,102132.69
2023-01-26T16:26:27.496Z,102142.69
2023-01-26T16:28:56.795Z,102133.44
2023-01-26T16:31:26.359Z,102136.41
2023-01-26T16:33:54.098Z,102136.03
2023-01-26T16:36:22.309Z,102147.75
2023-01-26T16:38:50.379Z,102141.25
2023-01-26T16:41:24.104Z,102145.47
2023-01-26T16:43:52.169Z,102148.34
2023-01-26T16:46:21.374Z,102160.03
2023-01-26T16:48:49.241Z,102164.75
2023-01-26T16:51:21.184Z,102159.38
2023-01-26T16:53:49.757Z,102157.72
2023-01-26T16:56:19.047Z,102154.16
2023-01-26T16:58:47.934Z,102165.50
2023-01-26T17:01:23.237Z,102166.63
2023-01-26T17:03:51.805Z,102171.56
2023-01-26T17:06:20.969Z,102178.69
2023-01-26T17:08:49.310Z,102173.91
2023-01-26T17:11:19.368Z,102179.00
2023-01-26T17:13:47.669Z,102183.16
2023-01-26T17:16:17.331Z,102187.81
2023-01-26T17:18:46.990Z,102182.53
2023-01-26T17:21:15.551Z,102190.59
2023-01-26T17:23:44.675Z,102192.56
2023-01-26T17:26:15.177Z,102189.75
2023-01-26T17:28:42.957Z,102196.00
2023-01-26T17:31:12.104Z,102187.13
2023-01-26T17:33:40.308Z,102194.13
2023-01-26T17:36:10.190Z,102195.91
2023-01-26T17:38:38.018Z,102198.41
2023-01-26T17:41:06.262Z,102198.78
2023-01-26T17:43:34.237Z,102208.91
2023-01-26T17:46:07.432Z,102198.41
2023-01-26T17:48:37.522Z,102192.28
2023-01-26T17:51:11.588Z,102203.16
2023-01-26T17:53:40.442Z,102197.53
2023-01-26T17:56:09.380Z,102204.16
2023-01-26T17:58:37.628Z,102202.53
2023-01-26T18:01:06.302Z,102207.56
2023-01-26T18:03:34.441Z,102205.41
2023-01-26T18:06:02.534Z,102199.44
2023-01-26T18:08:31.809Z,102205.66
2023-01-26T18:11:00.354Z,102207.28
2023-01-26T18:13:28.825Z,102202.56
2023-01-26T18:15:56.627Z,102212.69
2023-01-26T18:18:25.298Z,102215.31
2023-01-26T18:20:53.335Z,102222.53
2023-01-26T18:23:22.015Z,102227.84
2023-01-26T18:25:52.594Z,102218.94
2023-01-26T18:28:20.510Z,102228.47
2023-01-26T18:30:48.600Z,102224.66
2023-01-26T18:33:16.399Z,102224.72
2023-01-26T18:35:44.079Z,102223.97
2023-01-26T18:38:11.822Z,102220.09
2023-01-26T18:40:40.402Z,102221.81
2023-01-26T18:43:09.582Z,102209.81
2023-01-26T18:45:37.398Z,102214.13
2023-01-26T18:48:05.567Z,102206.09
2023-01-26T18:50:33.292Z,102212.31
2023-01-26T18:53:01.190Z,102201.78
2023-01-26T18:55:28.947Z,102211.66
2023-01-26T18:57:56.787Z,102210.03
2023-01-26T19:00:26.145Z,102211.97
2023-01-26T19:02:53.885Z,102216.38
2023-01-26T19:05:21.713Z,102215.56
2023-01-26T19:07:49.523Z,102223.47
2023-01-26T19:10:17.699Z,102222.50
2023-01-26T19:12:45.453Z,102221.69
2023-01-26T19:15:13.393Z,102219.91
2023-01-26T19:17:44.881Z,102222.53
2023-01-26T19:20:13.784Z,102232.56
2023-01-26T19:22:41.530Z,102220.41
2023-01-26T19:25:11.218Z,102217.56
2023-01-26T19:27:40.365Z,102219.13
2023-01-26T19:30:09.512Z,102222.91
2023-01-26T19:32:37.372Z,102219.97
2023-01-26T19:35:08.964Z,102222.53
2023-01-26T19:37:36.706Z,102221.97
2023-01-26T19:40:04.753Z,102231.84
2023-01-26T19:42:32.506Z,102227.47
2023-01-26T19:45:00.235Z,102223.94
2023-01-26T19:47:28.032Z,102219.50
2023-01-26T19:49:55.905Z,102222.19
2023-01-26T19:52:24.964Z,102224.00
2023-01-26T19:54:52.727Z,102222.94
2023-01-26T19:57:20.572Z,102225.63
2023-01-26T19:59:48.968Z,102219.44
2023-01-26T20:02:16.751Z,102226.53
2023-01-26T20:04:45.195Z,102221.00
2023-01-26T20:07:12.885Z,102227.31
2023-01-26T20:09:42.108Z,102217.53
2023-01-26T20:12:11.169Z,102211.25
2023-01-26T20:14:38.908Z,102212.00
2023-01-26T20:17:06.787Z,102212.84
2023-01-26T20:19:35.705Z,102217.38
2023-01-26T20:22:03.883Z,102211.25
2023-01-26T20:24:31.754Z,102215.75
2023-01-26T20:27:00.874Z,102206.69
2023-01-26T20:29:28.717Z,102211.16
2023-01-26T20:31:56.435Z,102219.13
2023-01-26T20:34:24.414Z,102227.00
2023-01-26T20:36:56.279Z,102225.28
2023-01-26T20:39:25.350Z,102229.81
2023-01-26T20:41:54.172Z,102218.31
2023-01-26T20:44:23.324Z,102226.91
2023-01-26T20:46:51.062Z,102233.94
2023-01-26T20:49:20.372Z,102224.94
2023-01-26T20:51:49.084Z,102230.50
2023-01-26T20:54:18.646Z,102230.50
2023-01-26T20:56:46.747Z,102231.19
2023-01-26T20:59:14.467Z,102235.13
2023-01-26T21:01:43.956Z,102226.22
2023-01-26T21:04:12.218Z,102235.88
2023-01-26T21:06:41.728Z,102238.31
2023-01-26T21:09:12.675Z,102237.56
2023-01-26T21:11:41.256Z,102237.69
2023-01-26T21:14:13.473Z,102234.50
2023-01-26T21:16:43.831Z,102250.88
2023-01-26T21:19:11.788Z,102236.59
2023-01-26T21:21:39.539Z,102236.75
2023-01-26T21:24:08.198Z,102236.56
2023-01-26T21:26:35.911Z,102236.75
2023-01-26T21:29:03.821Z,102235.09
2023-01-26T21:31:33.234Z,102239.66
2023-01-26T21:34:02.626Z,102237.75
2023-01-26T21:36:32.658Z,102241.94
2023-01-26T21:39:01.405Z,102244.81
2023-01-26T21:41:48.392Z,102236.41
2023-01-26T21:44:18.484Z,102232.69
2023-01-26T21:46:46.762Z,102231.28
2023-01-26T21:49:16.481Z,102233.69
2023-01-26T21:52:02.199Z,102232.41
2023-01-26T21:54:30.523Z,102237.03
2023-01-26T21:56:59.151Z,102227.22
2023-01-26T21:59:26.273Z,102230.84
2023-01-26T22:01:55.902Z,102233.16
2023-01-26T22:04:27.914Z,102226.97
2023-01-26T22:06:56.685Z,102224.31
2023-01-26T22:09:25.467Z,102226.25
2023-01-26T22:11:53.605Z,102230.06
2023-01-26T22:14:23.125Z,102222.78
2023-01-26T22:16:51.068Z,102218.25
2023-01-26T22:19:18.873Z,102220.22
2023-01-26T22:21:48.142Z,102214.34
2023-01-26T22:24:17.960Z,102210.47
2023-01-26T22:26:45.813Z,102213.81
2023-01-26T22:29:13.575Z,102198.16
2023-01-26T22:31:41.697Z,102212.38
2023-01-26T22:34:11.614Z,102201.91
2023-01-26T22:36:39.343Z,102204.66
2023-01-26T22:39:08.925Z,102198.41
2023-01-26T22:41:37.634Z,102192.91
2023-01-26T22:44:05.829Z,102200.19
2023-01-26T22:46:34.074Z,102191.91
2023-01-26T22:49:02.442Z,102191.84
2023-01-26T22:51:31.476Z,102193.59
2023-01-26T22:54:00.535Z,102193.09
2023-01-26T22:56:29.754Z,102196.22
2023-01-26T22:59:00.303Z,102203.16
2023-01-26T23:01:29.945Z,102186.28
2023-01-26T23:03:58.336Z,102197.16
2023-01-26T23:06:26.694Z,102195.94
2023-01-26T23:08:54.603Z,102203.84
2023-01-26T23:11:24.723Z,102206.66
2023-01-26T23:13:55.172Z,102201.25
2023-01-26T23:16:24.014Z,102196.81
2023-01-26T23:18:52.685Z,102212.75
2023-01-26T23:21:20.543Z,102201.97
2023-01-26T23:23:48.526Z,102211.63
2023-01-26T23:26:16.393Z,102215.03
2023-01-26T23:28:45.199Z,102214.13
2023-01-26T23:31:16.261Z,102210.75
2023-01-26T23:33:44.307Z,102219.53
2023-01-26T23:36:14.293Z,102211.38
2023-01-26T23:38:42.360Z,102220.88
2023-01-26T23:41:10.309Z,102222.09
2023-01-26T23:43:38.144Z,102217.72
2023-01-26T23:46:07.303Z,102222.25
2023-01-26T23:48:36.720Z,102224.66
2023-01-26T23:51:06.412Z,102227.31
2023-01-26T23:53:34.506Z,102222.84
2023-01-26T23:56:06.481Z,102224.00
2023-01-26T23:58:34.292Z,102223.56
